createdAt,value
2023-04-07T00:00:04.151Z,3.40
2023-04-07T00:02:32.499Z,3.40
2023-04-07T00:04:59.504Z,3.40
2023-04-07T00:07:26.388Z,3.40
2023-04-07T00:09:53.253Z,3.40
2023-04-07T00:12:20.135Z,3.40
2023-04-07T00:14:47.002Z,3.40
2023-04-07T00:17:13.923Z,3.40
2023-04-07T00:19:40.806Z,3.50
2023-04-07T00:22:07.695Z,3.50
2023-04-07T00:24:34.901Z,3.50
2023-04-07T00:27:02.481Z,3.50
2023-04-07T00:29:29.459Z,3.50
2023-04-07T00:31:56.331Z,3.50
2023-04-07T00:34:23.331Z,3.50
2023-04-07T00:36:52.479Z,3.50
2023-04-07T00:39:20.471Z,3.50
2023-04-07T00:41:48.248Z,3.60
2023-04-07T00:44:15.156Z,3.60
2023-04-07T00:46:42.529Z,3.50
2023-04-07T00:49:11.432Z,3.50
2023-04-07T00:51:38.481Z,3.50
2023-04-07T00:54:06.287Z,3.60
2023-04-07T00:56:33.483Z,3.60
2023-04-07T00:59:00.447Z,3.50
2023-04-07T01:01:44.121Z,3.50
2023-04-07T01:04:43.798Z,3.50
2023-04-07T01:07:18.099Z,3.50
2023-04-07T01:10:04.904Z,3.50
2023-04-07T01:12:55.910Z,3.50
2023-04-07T01:15:26.348Z,3.50
2023-04-07T01:17:59.768Z,3.60
2023-04-07T01:20:30.478Z,3.50
2023-04-07T01:23:02.351Z,3.50
2023-04-07T01:25:47.851Z,3.50
2023-04-07T01:28:58.681Z,3.50
2023-04-07T01:31:27.010Z,3.50
2023-04-07T01:33:56.118Z,3.50
2023-04-07T01:36:23.576Z,3.50
2023-04-07T01:38:51.789Z,3.60
2023-04-07T01:41:19.642Z,3.50
2023-04-07T01:43:48.240Z,3.50
2023-04-07T01:46:15.871Z,3.50
2023-04-07T01:48:43.227Z,3.50
2023-04-07T01:51:12.090Z,3.50
2023-04-07T01:53:39.874Z,3.50
2023-04-07T01:56:07.044Z,3.50
2023-04-07T01:58:33.889Z,3.50
2023-04-07T02:01:00.906Z,3.60
2023-04-07T02:03:35.593Z,3.60
2023-04-07T02:06:10.527Z,3.60
2023-04-07T02:08:42.514Z,3.50
2023-04-07T02:11:12.907Z,3.60
2023-04-07T02:13:42.351Z,3.60
2023-04-07T02:16:10.665Z,3.60
2023-04-07T02:18:38.564Z,3.60
2023-04-07T02:21:08.736Z,3.60
2023-04-07T02:23:36.141Z,3.60
2023-04-07T02:26:03.112Z,3.60
2023-04-07T02:28:30.054Z,3.60
2023-04-07T02:30:57.154Z,3.60
2023-04-07T02:33:24.028Z,3.50
2023-04-07T02:35:51.161Z,3.60
2023-04-07T02:38:17.978Z,3.60
2023-04-07T02:40:44.834Z,3.60
2023-04-07T02:43:11.666Z,3.60
2023-04-07T02:45:38.532Z,3.60
2023-04-07T02:48:05.887Z,3.60
2023-04-07T02:50:32.756Z,3.60
2023-04-07T02:52:59.689Z,3.60
2023-04-07T02:55:26.513Z,3.60
2023-04-07T02:57:53.392Z,3.60
2023-04-07T03:00:20.499Z,3.60
2023-04-07T03:02:47.592Z,3.60
2023-04-07T03:05:14.706Z,3.60
2023-04-07T03:07:41.782Z,3.60
2023-04-07T03:10:08.978Z,3.60
2023-04-07T03:12:35.963Z,3.50
2023-04-07T03:15:02.982Z,3.50
2023-04-07T03:17:29.845Z,3.50
2023-04-07T03:19:57.027Z,3.60
2023-04-07T03:22:23.868Z,3.60
2023-04-07T03:24:50.753Z,3.60
2023-04-07T03:27:18.566Z,3.70
2023-04-07T03:29:45.707Z,3.70
2023-04-07T03:32:12.630Z,3.70
2023-04-07T03:34:39.453Z,3.70
2023-04-07T03:37:06.269Z,3.70
2023-04-07T03:39:33.120Z,3.70
2023-04-07T03:41:59.950Z,3.70
2023-04-07T03:44:26.782Z,3.70
2023-04-07T03:46:53.874Z,3.70
2023-04-07T03:49:21.174Z,3.70
2023-04-07T03:51:48.039Z,3.70
2023-04-07T03:54:14.922Z,3.70
2023-04-07T03:56:41.864Z,3.70
2023-04-07T03:59:11.491Z,3.70
2023-04-07T04:01:38.462Z,3.70
2023-04-07T04:04:05.902Z,3.70
2023-04-07T04:06:32.893Z,3.60
2023-04-07T04:08:59.728Z,3.70
2023-04-07T04:11:27.545Z,3.70
2023-04-07T04:13:54.767Z,3.70
2023-04-07T04:16:21.898Z,3.70
2023-04-07T04:18:48.743Z,3.70
2023-04-07T04:21:15.774Z,3.60
2023-04-07T04:23:42.727Z,3.70
2023-04-07T04:26:09.563Z,3.70
2023-04-07T04:28:36.765Z,3.70
2023-04-07T04:31:04.674Z,3.70
2023-04-07T04:33:31.605Z,3.70
2023-04-07T04:35:58.614Z,3.70
2023-04-07T04:38:25.659Z,3.70
2023-04-07T04:40:52.538Z,3.70
2023-04-07T04:43:19.685Z,3.70
2023-04-07T04:45:47.450Z,3.70
2023-04-07T04:48:14.339Z,3.70
2023-04-07T04:50:45.685Z,3.70
2023-04-07T04:53:12.597Z,3.70
2023-04-07T04:55:41.044Z,3.70
2023-04-07T04:58:07.950Z,3.70
2023-04-07T05:00:34.892Z,3.80
2023-04-07T05:03:03.361Z,3.90
2023-04-07T05:05:30.426Z,3.80
2023-04-07T05:07:57.318Z,3.80
2023-04-07T05:10:24.212Z,3.80
2023-04-07T05:12:51.290Z,3.80
2023-04-07T05:15:18.267Z,3.80
2023-04-07T05:17:50.461Z,3.80
2023-04-07T05:20:17.632Z,3.80
2023-04-07T05:22:44.487Z,3.80
2023-04-07T05:25:11.632Z,3.80
2023-04-07T05:27:38.460Z,3.80
2023-04-07T05:30:06.132Z,3.80
2023-04-07T05:32:33.156Z,3.80
2023-04-07T05:35:00.051Z,3.80
2023-04-07T05:37:26.892Z,3.80
2023-04-07T05:39:53.746Z,3.80
2023-04-07T05:42:21.201Z,3.80
2023-04-07T05:44:48.051Z,3.80
2023-04-07T05:47:14.869Z,3.80
2023-04-07T05:49:46.114Z,3.80
2023-04-07T05:52:13.864Z,3.80
2023-04-07T05:54:41.055Z,3.90
2023-04-07T05:57:08.958Z,3.90
2023-04-07T05:59:36.746Z,3.90
2023-04-07T06:02:04.902Z,3.90
2023-04-07T06:04:32.973Z,3.90
2023-04-07T06:06:59.930Z,3.90
2023-04-07T06:09:26.879Z,3.90
2023-04-07T06:11:53.760Z,4.00
2023-04-07T06:14:20.897Z,4.00
2023-04-07T06:16:47.828Z,4.00
2023-04-07T06:19:14.814Z,3.90
2023-04-07T06:21:41.715Z,3.90
2023-04-07T06:24:08.678Z,4.00
2023-04-07T06:26:35.660Z,3.90
2023-04-07T06:29:02.655Z,4.00
2023-04-07T06:31:29.527Z,4.00
2023-04-07T06:33:56.450Z,4.00
2023-04-07T06:36:23.855Z,4.10
2023-04-07T06:38:51.296Z,4.10
2023-04-07T06:41:18.352Z,4.10
2023-04-07T06:43:48.035Z,4.20
2023-04-07T06:46:15.192Z,4.10
2023-04-07T06:48:42.086Z,4.10
2023-04-07T06:51:09.022Z,4.20
2023-04-07T06:53:35.979Z,4.20
2023-04-07T06:56:10.579Z,4.20
2023-04-07T06:58:38.449Z,4.20
2023-04-07T07:01:06.423Z,4.10
2023-04-07T07:03:33.858Z,4.20
2023-04-07T07:06:01.911Z,4.20
2023-04-07T07:08:31.872Z,4.20
2023-04-07T07:10:58.887Z,4.20
2023-04-07T07:13:26.975Z,4.20
2023-04-07T07:15:54.103Z,4.20
2023-04-07T07:18:21.216Z,4.20
2023-04-07T07:20:48.071Z,4.30
2023-04-07T07:23:15.065Z,4.30
2023-04-07T07:25:42.167Z,4.30
2023-04-07T07:28:09.723Z,4.30
2023-04-07T07:30:36.670Z,4.30
2023-04-07T07:33:03.762Z,4.30
2023-04-07T07:35:32.734Z,4.30
2023-04-07T07:37:59.630Z,4.40
2023-04-07T07:40:26.501Z,4.40
2023-04-07T07:42:53.434Z,4.40
2023-04-07T07:45:20.570Z,4.50
2023-04-07T07:47:47.457Z,4.40
2023-04-07T07:50:14.593Z,4.40
2023-04-07T07:52:41.903Z,4.50
2023-04-07T07:55:09.275Z,4.50
2023-04-07T07:57:36.369Z,4.50
2023-04-07T08:00:04.611Z,4.50
2023-04-07T08:02:34.812Z,4.50
2023-04-07T08:05:01.772Z,4.50
2023-04-07T08:07:28.962Z,4.50
2023-04-07T08:09:55.797Z,4.60
2023-04-07T08:12:22.876Z,4.60
2023-04-07T08:14:50.645Z,4.60
2023-04-07T08:17:17.824Z,4.70
2023-04-07T08:19:44.852Z,4.70
2023-04-07T08:22:11.782Z,4.70
2023-04-07T08:24:38.712Z,4.70
2023-04-07T08:27:05.961Z,4.70
2023-04-07T08:29:32.923Z,4.70
2023-04-07T08:31:59.922Z,4.70
2023-04-07T08:34:26.841Z,4.70
2023-04-07T08:36:53.705Z,4.70
2023-04-07T08:39:20.617Z,4.70
2023-04-07T08:41:49.020Z,4.70
2023-04-07T08:44:16.579Z,4.70
2023-04-07T08:46:44.120Z,4.70
2023-04-07T08:49:14.120Z,4.70
2023-04-07T08:51:51.838Z,4.70
2023-04-07T08:54:21.734Z,4.70
2023-04-07T08:56:48.900Z,4.80
2023-04-07T08:59:18.777Z,4.80
2023-04-07T09:01:47.578Z,4.80
2023-04-07T09:04:14.825Z,4.90
2023-04-07T09:06:41.798Z,4.90
2023-04-07T09:09:08.669Z,4.90
2023-04-07T09:11:40.181Z,4.90
2023-04-07T09:14:07.860Z,5.10
2023-04-07T09:16:35.951Z,5.10
2023-04-07T09:19:03.023Z,5.10
2023-04-07T09:21:51.501Z,5.30
2023-04-07T09:24:27.217Z,5.40
2023-04-07T09:27:17.047Z,5.40
2023-04-07T09:29:46.780Z,5.50
2023-04-07T09:32:23.721Z,5.50
2023-04-07T09:34:59.329Z,5.60
2023-04-07T09:37:26.613Z,5.60
2023-04-07T09:39:54.139Z,5.50
2023-04-07T09:42:21.722Z,5.60
2023-04-07T09:44:48.687Z,5.60
2023-04-07T09:47:16.178Z,5.70
2023-04-07T09:49:52.692Z,5.80
2023-04-07T09:52:22.703Z,5.90
2023-04-07T09:54:57.239Z,6.00
2023-04-07T09:57:24.739Z,6.00
2023-04-07T09:59:54.265Z,6.00
2023-04-07T10:02:23.155Z,5.60
2023-04-07T10:04:51.446Z,6.10
2023-04-07T10:07:18.363Z,6.00
2023-04-07T10:09:45.440Z,6.10
2023-04-07T10:12:14.952Z,6.20
2023-04-07T10:14:47.081Z,6.30
2023-04-07T10:17:18.828Z,6.40
2023-04-07T10:19:47.070Z,6.50
2023-04-07T10:22:15.502Z,6.50
2023-04-07T10:24:56.248Z,6.60
2023-04-07T10:27:37.345Z,6.70
2023-04-07T10:30:07.417Z,6.70
2023-04-07T10:32:52.797Z,6.70
2023-04-07T10:35:21.186Z,6.80
2023-04-07T10:38:06.905Z,6.90
2023-04-07T10:40:34.737Z,7.00
2023-04-07T10:43:01.859Z,7.00
2023-04-07T10:45:48.524Z,7.00
2023-04-07T10:48:17.253Z,7.00
2023-04-07T10:50:45.809Z,6.90
2023-04-07T10:53:16.454Z,7.00
2023-04-07T10:55:46.831Z,7.00
2023-04-07T10:58:26.725Z,7.10
2023-04-07T11:01:12.465Z,7.10
2023-04-07T11:03:54.021Z,7.10
2023-04-07T11:06:21.373Z,7.20
2023-04-07T11:08:49.670Z,7.20
2023-04-07T11:11:19.735Z,7.30
2023-04-07T11:13:51.664Z,7.40
2023-04-07T11:16:20.876Z,7.40
2023-04-07T11:18:48.399Z,7.50
2023-04-07T11:21:19.041Z,7.50
2023-04-07T11:24:07.962Z,7.60
2023-04-07T11:26:41.827Z,7.70
2023-04-07T11:29:08.748Z,7.70
2023-04-07T11:31:36.092Z,7.80
2023-04-07T11:34:05.239Z,7.90
2023-04-07T11:36:38.590Z,8.00
2023-04-07T11:39:05.543Z,8.00
2023-04-07T11:41:33.734Z,8.10
2023-04-07T11:44:18.938Z,8.10
2023-04-07T11:47:05.359Z,8.20
2023-04-07T11:49:32.535Z,8.20
2023-04-07T11:52:08.711Z,8.30
2023-04-07T11:54:47.259Z,8.30
2023-04-07T11:57:14.789Z,8.40
2023-04-07T11:59:42.165Z,8.40
2023-04-07T12:02:09.765Z,8.40
2023-04-07T12:04:40.349Z,8.60
2023-04-07T12:07:11.492Z,8.70
2023-04-07T12:09:38.621Z,8.80
2023-04-07T12:12:07.833Z,8.80
2023-04-07T12:14:43.876Z,8.80
2023-04-07T12:17:29.067Z,8.90
2023-04-07T12:19:59.545Z,8.60
2023-04-07T12:22:27.029Z,9.10
2023-04-07T12:24:53.951Z,11.80
2023-04-07T12:27:26.772Z,9.40
2023-04-07T12:29:59.499Z,9.50
2023-04-07T12:32:26.404Z,9.50
2023-04-07T12:34:53.359Z,9.60
2023-04-07T12:37:20.284Z,9.60
2023-04-07T12:39:47.187Z,9.60
2023-04-07T12:42:14.945Z,9.60
2023-04-07T12:44:41.817Z,9.50
2023-04-07T12:47:08.666Z,9.50
2023-04-07T12:49:36.018Z,9.50
2023-04-07T12:52:03.080Z,9.60
2023-04-07T12:54:30.381Z,9.70
2023-04-07T12:56:57.329Z,9.70
2023-04-07T12:59:24.236Z,9.70
2023-04-07T13:01:51.648Z,9.60
2023-04-07T13:04:18.674Z,9.70
2023-04-07T13:06:45.614Z,9.70
2023-04-07T13:09:12.426Z,9.80
2023-04-07T13:11:39.385Z,9.90
2023-04-07T13:14:07.696Z,9.90
2023-04-07T13:16:34.742Z,9.90
2023-04-07T13:19:02.199Z,10.00
2023-04-07T13:21:45.167Z,10.10
2023-04-07T13:24:14.041Z,10.20
2023-04-07T13:26:41.086Z,10.20
2023-04-07T13:29:08.046Z,10.20
2023-04-07T13:31:34.943Z,10.10
2023-04-07T13:34:01.901Z,10.00
2023-04-07T13:36:29.028Z,10.00
2023-04-07T13:38:57.136Z,9.90
2023-04-07T13:41:24.144Z,9.90
2023-04-07T13:43:51.402Z,9.90
2023-04-07T13:48:49.541Z,10.00
2023-04-07T13:51:17.022Z,9.90
2023-04-07T13:53:44.012Z,9.80
2023-04-07T13:56:11.091Z,9.70
2023-04-07T13:58:38.040Z,9.70
2023-04-07T14:01:05.083Z,9.80
2023-04-07T14:03:32.179Z,9.70
2023-04-07T14:06:01.290Z,9.70
2023-04-07T14:08:28.517Z,9.60
2023-04-07T14:10:55.659Z,9.60
2023-04-07T14:13:23.160Z,9.60
2023-04-07T14:15:50.442Z,9.60
2023-04-07T14:18:17.743Z,9.60
2023-04-07T14:20:44.899Z,9.60
2023-04-07T14:23:12.585Z,9.50
2023-04-07T14:25:41.146Z,9.60
2023-04-07T14:28:08.275Z,9.60
2023-04-07T14:30:38.863Z,9.50
2023-04-07T14:33:06.021Z,9.60
2023-04-07T14:35:33.123Z,9.50
2023-04-07T14:38:00.510Z,9.40
2023-04-07T14:40:27.580Z,9.40
2023-04-07T14:43:07.003Z,9.40
2023-04-07T14:45:41.536Z,9.30
2023-04-07T14:48:11.860Z,10.00
2023-04-07T14:50:38.977Z,9.40
2023-04-07T14:53:06.700Z,9.40
2023-04-07T14:55:34.444Z,9.40
2023-04-07T14:58:01.317Z,9.50
2023-04-07T15:00:28.887Z,9.50
2023-04-07T15:02:56.222Z,9.50
2023-04-07T15:05:23.266Z,9.50
2023-04-07T15:07:50.885Z,9.50
2023-04-07T15:10:18.614Z,9.40
2023-04-07T15:12:54.788Z,9.40
2023-04-07T15:15:21.709Z,9.50
2023-04-07T15:17:48.689Z,9.50
2023-04-07T15:20:15.705Z,9.50
2023-04-07T15:22:42.539Z,9.60
2023-04-07T15:25:09.468Z,9.60
2023-04-07T15:27:36.599Z,9.60
2023-04-07T15:30:03.932Z,9.60
2023-04-07T15:32:31.883Z,9.60
2023-04-07T15:34:58.895Z,9.60
2023-04-07T15:37:26.362Z,9.60
2023-04-07T15:39:53.404Z,9.60
2023-04-07T15:42:20.495Z,9.60
2023-04-07T15:44:47.424Z,9.60
2023-04-07T15:47:14.306Z,9.60
2023-04-07T15:49:42.412Z,9.50
2023-04-07T15:52:09.620Z,9.50
2023-04-07T15:54:36.509Z,9.50
2023-04-07T15:57:03.696Z,9.50
2023-04-07T15:59:31.241Z,9.50
2023-04-07T16:01:58.753Z,9.50
2023-04-07T16:04:25.847Z,9.50
2023-04-07T16:06:52.880Z,9.40
2023-04-07T16:09:19.738Z,9.40
2023-04-07T16:11:46.590Z,9.40
2023-04-07T16:14:13.525Z,9.40
2023-04-07T16:16:41.633Z,9.40
2023-04-07T16:19:08.734Z,9.40
2023-04-07T16:21:35.738Z,9.40
2023-04-07T16:24:02.910Z,9.40
2023-04-07T16:26:30.008Z,9.30
2023-04-07T16:28:56.873Z,9.20
2023-04-07T16:31:23.854Z,9.20
2023-04-07T16:33:51.618Z,9.10
2023-04-07T16:36:18.610Z,9.10
2023-04-07T16:38:45.560Z,9.10
2023-04-07T16:41:12.461Z,9.10
2023-04-07T16:43:39.484Z,9.00
2023-04-07T16:46:06.485Z,9.00
2023-04-07T16:48:33.698Z,8.90
2023-04-07T16:51:00.728Z,8.90
2023-04-07T16:53:27.983Z,8.90
2023-04-07T16:55:55.360Z,8.80
2023-04-07T16:58:22.294Z,8.80
2023-04-07T17:00:49.235Z,8.70
2023-04-07T17:03:16.397Z,8.60
2023-04-07T17:05:44.912Z,8.60
2023-04-07T17:08:12.024Z,8.50
2023-04-07T17:10:39.083Z,8.50
2023-04-07T17:13:06.251Z,8.50
2023-04-07T17:15:37.761Z,8.40
2023-04-07T17:18:04.799Z,8.40
2023-04-07T17:20:31.948Z,7.80
2023-04-07T17:22:58.844Z,8.20
2023-04-07T17:25:26.120Z,8.20
2023-04-07T17:27:55.228Z,8.10
2023-04-07T17:30:22.678Z,8.00
2023-04-07T17:32:50.888Z,7.90
2023-04-07T17:35:18.252Z,7.90
2023-04-07T17:37:45.324Z,7.80
2023-04-07T17:40:12.827Z,7.80
2023-04-07T17:42:40.029Z,7.70
2023-04-07T17:45:08.346Z,7.80
2023-04-07T17:47:38.927Z,7.70
2023-04-07T17:50:06.838Z,7.60
2023-04-07T17:52:33.812Z,7.60
2023-04-07T17:55:01.194Z,7.60
2023-04-07T17:57:28.087Z,7.50
2023-04-07T17:59:54.931Z,7.50
2023-04-07T18:02:22.299Z,7.50
2023-04-07T18:04:49.591Z,7.50
2023-04-07T18:07:17.815Z,7.50
2023-04-07T18:09:45.057Z,7.50
2023-04-07T18:12:12.306Z,7.50
2023-04-07T18:14:39.288Z,7.40
2023-04-07T18:17:06.290Z,7.40
2023-04-07T18:19:33.991Z,7.30
2023-04-07T18:22:01.075Z,7.30
2023-04-07T18:24:28.194Z,7.40
2023-04-07T18:26:55.925Z,7.40
2023-04-07T18:29:22.895Z,7.40
2023-04-07T18:31:49.969Z,7.40
2023-04-07T18:34:17.013Z,7.40
2023-04-07T18:36:47.742Z,7.40
2023-04-07T18:39:16.258Z,7.40
2023-04-07T18:41:45.691Z,8.20
2023-04-07T18:44:13.210Z,7.50
2023-04-07T18:46:43.315Z,7.30
2023-04-07T18:49:13.035Z,7.30
2023-04-07T18:51:47.309Z,7.30
2023-04-07T18:54:14.595Z,5.30
2023-04-07T18:56:41.605Z,7.20
2023-04-07T18:59:08.595Z,7.20
2023-04-07T19:01:35.828Z,7.30
2023-04-07T19:04:03.090Z,7.30
2023-04-07T19:06:32.613Z,7.30
2023-04-07T19:08:59.882Z,7.30
2023-04-07T19:11:27.209Z,7.20
2023-04-07T19:13:56.370Z,7.20
2023-04-07T19:16:27.121Z,7.20
2023-04-07T19:18:54.428Z,7.20
2023-04-07T19:21:21.734Z,7.20
2023-04-07T19:23:48.974Z,7.20
2023-04-07T19:26:16.656Z,7.20
2023-04-07T19:28:44.328Z,7.20
2023-04-07T19:31:11.473Z,7.20
2023-04-07T19:33:38.544Z,7.20
2023-04-07T19:36:05.690Z,7.20
2023-04-07T19:38:32.814Z,7.20
2023-04-07T19:40:59.740Z,7.20
2023-04-07T19:43:26.704Z,7.20
2023-04-07T19:48:52.979Z,7.20
2023-04-07T19:51:26.023Z,7.80
2023-04-07T19:53:58.161Z,7.50
2023-04-07T19:56:34.119Z,7.20
2023-04-07T19:59:03.046Z,7.20
2023-04-07T20:01:32.559Z,6.80
2023-04-07T20:04:01.910Z,7.10
2023-04-07T20:06:29.097Z,7.20
2023-04-07T20:08:56.224Z,7.10
2023-04-07T20:11:23.286Z,7.10
2023-04-07T20:13:50.291Z,7.10
2023-04-07T20:16:17.511Z,7.10
2023-04-07T20:18:44.542Z,7.00
2023-04-07T20:21:11.699Z,7.00
2023-04-07T20:23:38.714Z,7.10
2023-04-07T20:26:05.736Z,7.10
2023-04-07T20:28:32.863Z,7.00
2023-04-07T20:31:00.066Z,7.00
2023-04-07T20:33:27.288Z,7.00
2023-04-07T20:35:54.906Z,7.00
2023-04-07T20:38:21.947Z,7.10
2023-04-07T20:40:48.984Z,7.00
2023-04-07T20:43:18.158Z,7.10
2023-04-07T20:45:46.306Z,7.10
2023-04-07T20:48:13.439Z,7.00
2023-04-07T20:50:40.324Z,7.00
2023-04-07T20:53:07.247Z,7.00
2023-04-07T20:55:34.205Z,7.00
2023-04-07T20:58:01.458Z,7.00
2023-04-07T21:00:28.298Z,7.00
2023-04-07T21:02:55.463Z,6.90
2023-04-07T21:05:22.497Z,6.90
2023-04-07T21:07:49.312Z,6.90
2023-04-07T21:10:16.261Z,6.90
2023-04-07T21:12:43.143Z,6.90
2023-04-07T21:15:11.578Z,6.90
2023-04-07T21:17:38.477Z,6.90
2023-04-07T21:20:05.917Z,6.90
2023-04-07T21:22:32.794Z,6.90
2023-04-07T21:24:59.646Z,6.90
2023-04-07T21:27:26.497Z,6.90
2023-04-07T21:29:53.361Z,6.90
2023-04-07T21:32:20.722Z,6.90
2023-04-07T21:34:47.610Z,6.80
2023-04-07T21:37:14.457Z,6.80
2023-04-07T21:39:41.291Z,6.80
2023-04-07T21:42:08.137Z,6.80
2023-04-07T21:44:35.063Z,6.70
2023-04-07T21:47:02.552Z,6.80
2023-04-07T21:49:29.383Z,6.70
2023-04-07T21:51:56.233Z,6.70
2023-04-07T21:54:23.216Z,6.70
2023-04-07T21:56:51.639Z,6.70
2023-04-07T21:59:18.776Z,6.80
2023-04-07T22:01:47.122Z,6.80
2023-04-07T22:04:14.585Z,6.80
2023-04-07T22:06:41.590Z,6.80
2023-04-07T22:09:10.233Z,6.70
2023-04-07T22:11:37.048Z,6.80
2023-04-07T22:14:03.930Z,6.70
2023-04-07T22:16:31.160Z,6.80
2023-04-07T22:18:58.267Z,6.80
2023-04-07T22:21:25.438Z,6.70
2023-04-07T22:23:52.426Z,6.70
2023-04-07T22:26:19.379Z,6.70
2023-04-07T22:28:46.615Z,6.70
2023-04-07T22:31:13.548Z,6.80
2023-04-07T22:33:40.470Z,6.80
2023-04-07T22:36:07.469Z,6.80
2023-04-07T22:38:34.382Z,6.80
2023-04-07T22:41:01.731Z,6.80
2023-04-07T22:43:28.654Z,6.80
2023-04-07T22:45:55.505Z,6.80
2023-04-07T22:48:22.357Z,6.80
2023-04-07T22:50:49.306Z,6.80
2023-04-07T22:53:16.411Z,6.80
2023-04-07T22:55:43.348Z,6.80
2023-04-07T22:58:10.273Z,6.80
2023-04-07T23:00:37.097Z,6.80
2023-04-07T23:03:04.338Z,6.80
2023-04-07T23:05:31.324Z,6.80
2023-04-07T23:07:58.474Z,6.90
2023-04-07T23:10:25.436Z,6.90
2023-04-07T23:12:54.075Z,6.90
2023-04-07T23:15:21.040Z,6.90
2023-04-07T23:17:48.070Z,6.90
2023-04-07T23:20:14.927Z,6.90
2023-04-07T23:22:41.860Z,6.90
2023-04-07T23:25:09.162Z,6.90
2023-04-07T23:27:36.546Z,6.90
2023-04-07T23:30:04.508Z,6.90
2023-04-07T23:32:31.464Z,6.90
2023-04-07T23:34:58.390Z,6.90
2023-04-07T23:37:25.321Z,6.90
2023-04-07T23:39:52.169Z,6.90
2023-04-07T23:42:19.105Z,6.90
2023-04-07T23:44:46.046Z,6.90
2023-04-07T23:47:12.898Z,6.90
2023-04-07T23:49:39.765Z,6.90
2023-04-07T23:52:06.651Z,6.90
2023-04-07T23:54:33.689Z,6.90
2023-04-07T23:57:01.715Z,6.90
2023-04-07T23:59:28.634Z,6.90
